createdAt,value
2022-10-07T00:03:35.680Z,101675.48
2022-10-07T00:08:41.141Z,101671.14
2022-10-07T00:13:46.361Z,101667.89
2022-10-07T00:18:49.604Z,101666.69
2022-10-07T00:23:53.632Z,101665.27
2022-10-07T00:28:57.761Z,101668.95
2022-10-07T00:34:01.501Z,101667.62
2022-10-07T00:39:07.637Z,101667.06
2022-10-07T00:44:32.783Z,101657.27
2022-10-07T00:49:50.940Z,101655.84
2022-10-07T00:54:57.089Z,101657.63
2022-10-07T01:00:02.473Z,101657.39
2022-10-07T01:05:09.506Z,101657.77
2022-10-07T01:10:15.759Z,101657.50
2022-10-07T01:15:40.775Z,101652.20
2022-10-07T01:20:58.215Z,101651.85
2022-10-07T01:26:39.515Z,101654.85
2022-10-07T01:31:51.735Z,101652.13
2022-10-07T01:36:58.017Z,101648.81
2022-10-07T01:42:01.223Z,101649.87
2022-10-07T01:47:04.635Z,101651.19
2022-10-07T01:52:24.537Z,101644.82
2022-10-07T01:57:52.013Z,101635.72
2022-10-07T02:03:13.706Z,101633.89
2022-10-07T02:08:46.273Z,101634.28
2022-10-07T02:14:12.296Z,101639.85
2022-10-07T02:19:54.311Z,101632.18
2022-10-07T02:24:59.351Z,101633.33
2022-10-07T02:30:13.354Z,101635.90
2022-10-07T02:35:27.803Z,101636.83
2022-10-07T02:40:40.221Z,101635.36
2022-10-07T02:46:07.203Z,101636.95
2022-10-07T02:51:21.294Z,101634.83
2022-10-07T02:56:26.814Z,101626.87
2022-10-07T03:01:35.378Z,101628.86
2022-10-07T03:06:38.550Z,101633.08
2022-10-07T03:11:41.655Z,101633.98
2022-10-07T03:16:44.965Z,101634.09
2022-10-07T03:21:48.278Z,101636.03
2022-10-07T03:26:51.790Z,101636.02
2022-10-07T03:31:55.715Z,101631.52
2022-10-07T03:36:59.762Z,101634.71
2022-10-07T03:42:02.854Z,101632.54
2022-10-07T03:47:10.626Z,101630.27
2022-10-07T03:52:14.180Z,101622.59
2022-10-07T03:57:36.434Z,101619.34
2022-10-07T04:02:39.661Z,101617.48
2022-10-07T04:07:48.087Z,101617.41
2022-10-07T04:12:54.250Z,101612.62
2022-10-07T04:18:00.431Z,101611.96
2022-10-07T04:23:04.485Z,101610.23
2022-10-07T04:28:16.220Z,101604.99
2022-10-07T04:33:20.995Z,101608.48
2022-10-07T04:38:28.272Z,101606.06
2022-10-07T04:43:34.390Z,101607.86
2022-10-07T04:48:37.494Z,101612.60
2022-10-07T04:53:40.606Z,101613.82
2022-10-07T04:58:43.708Z,101613.38
2022-10-07T05:03:46.810Z,101616.61
2022-10-07T05:08:50.430Z,101614.93
2022-10-07T05:13:53.432Z,101610.00
2022-10-07T05:18:57.536Z,101602.81
2022-10-07T05:24:01.177Z,101601.20
2022-10-07T05:29:06.219Z,101603.20
2022-10-07T05:34:09.542Z,101603.19
2022-10-07T05:39:13.156Z,101600.22
2022-10-07T05:44:16.364Z,101602.95
2022-10-07T05:49:19.470Z,101601.27
2022-10-07T05:54:22.780Z,101602.61
2022-10-07T05:59:26.193Z,101605.09
2022-10-07T06:04:29.402Z,101606.02
2022-10-07T06:09:51.349Z,101608.58
2022-10-07T06:14:54.456Z,101616.27
2022-10-07T06:19:57.563Z,101624.72
2022-10-07T06:25:02.816Z,101630.77
2022-10-07T06:30:09.899Z,101637.79
2022-10-07T06:35:13.227Z,101642.96
2022-10-07T06:40:16.539Z,101642.01
2022-10-07T06:45:21.720Z,101643.61
2022-10-07T06:50:25.411Z,101644.05
2022-10-07T06:55:29.439Z,101651.92
2022-10-07T07:00:32.543Z,101651.76
2022-10-07T07:05:41.367Z,101649.66
2022-10-07T07:10:47.874Z,101653.29
2022-10-07T07:15:59.141Z,101656.38
2022-10-07T07:21:03.603Z,101656.11
2022-10-07T07:26:07.523Z,101658.15
2022-10-07T07:31:13.110Z,101658.32
2022-10-07T07:36:16.912Z,101649.88
2022-10-07T07:41:23.703Z,101643.40
2022-10-07T07:46:32.343Z,101642.48
2022-10-07T07:51:36.060Z,101642.42
2022-10-07T07:56:39.991Z,101640.50
2022-10-07T08:01:45.649Z,101637.45
2022-10-07T08:06:48.759Z,101633.16
2022-10-07T08:11:52.168Z,101633.91
2022-10-07T08:16:59.277Z,101633.50
2022-10-07T08:22:02.376Z,101633.95
2022-10-07T08:27:05.477Z,101631.25
2022-10-07T08:32:08.685Z,101626.05
2022-10-07T08:37:11.789Z,101621.41
2022-10-07T08:42:28.313Z,101625.13
2022-10-07T08:47:45.598Z,101623.44
2022-10-07T08:52:54.184Z,101615.95
2022-10-07T08:58:06.522Z,101605.39
2022-10-07T09:03:44.325Z,101597.88
2022-10-07T09:08:52.753Z,101587.67
2022-10-07T09:14:24.754Z,101580.63
2022-10-07T09:19:33.267Z,101572.41
2022-10-07T09:24:36.405Z,101567.17
2022-10-07T09:29:40.097Z,101563.70
2022-10-07T09:34:43.259Z,101562.09
2022-10-07T09:39:49.396Z,101555.45
2022-10-07T09:44:57.946Z,101550.41
2022-10-07T09:50:01.127Z,101541.18
2022-10-07T09:55:32.999Z,101530.34
2022-10-07T10:00:44.137Z,101518.39
2022-10-07T10:06:00.109Z,101508.26
2022-10-07T10:11:07.712Z,101495.78
2022-10-07T10:16:26.430Z,101495.76
2022-10-07T10:21:30.925Z,101491.77
2022-10-07T10:26:48.867Z,101479.75
2022-10-07T10:32:01.728Z,101473.96
2022-10-07T10:37:18.855Z,101467.95
2022-10-07T10:42:48.111Z,101464.59
2022-10-07T10:48:15.025Z,101455.48
2022-10-07T10:53:35.750Z,101447.77
2022-10-07T10:58:53.598Z,101438.64
2022-10-07T11:04:05.713Z,101431.70
2022-10-07T11:09:17.155Z,101424.95
2022-10-07T11:14:23.907Z,101412.15
2022-10-07T11:19:36.328Z,101403.95
2022-10-07T11:24:43.739Z,101398.88
2022-10-07T11:29:55.954Z,101387.71
2022-10-07T11:35:16.161Z,101382.55
2022-10-07T11:40:28.794Z,101371.23
2022-10-07T11:45:41.832Z,101362.88
2022-10-07T11:50:55.073Z,101356.66
2022-10-07T11:56:22.387Z,101343.03
2022-10-07T12:01:51.410Z,101333.09
2022-10-07T12:07:33.177Z,101323.52
2022-10-07T12:12:43.448Z,101312.83
2022-10-07T12:18:06.133Z,101302.27
2022-10-07T12:23:22.482Z,101295.29
2022-10-07T12:28:42.255Z,101291.74
2022-10-07T12:33:45.427Z,101283.20
2022-10-07T12:38:58.260Z,101277.81
2022-10-07T12:44:29.087Z,101271.56
2022-10-07T12:49:41.438Z,101261.95
2022-10-07T12:54:50.599Z,101248.48
2022-10-07T12:59:56.566Z,101237.02
2022-10-07T13:05:38.477Z,101231.09
2022-10-07T13:11:04.211Z,101224.58
2022-10-07T13:16:46.082Z,101217.14
2022-10-07T13:22:06.434Z,101212.50
2022-10-07T13:27:12.829Z,101211.65
2022-10-07T13:32:18.906Z,101200.70
2022-10-07T13:37:33.674Z,101195.88
2022-10-07T13:42:39.527Z,101185.92
2022-10-07T13:47:47.725Z,101175.01
2022-10-07T13:52:57.735Z,101165.91
2022-10-07T13:58:04.804Z,101156.38
2022-10-07T14:03:18.452Z,101151.51
2022-10-07T14:08:24.877Z,101143.54
2022-10-07T14:13:29.604Z,101134.45
2022-10-07T14:18:34.027Z,101123.52
2022-10-07T14:23:38.587Z,101113.59
2022-10-07T14:28:44.097Z,101107.34
2022-10-07T14:34:11.018Z,101101.21
2022-10-07T14:39:32.526Z,101096.91
2022-10-07T14:44:39.443Z,101086.17
2022-10-07T14:49:44.808Z,101075.44
2022-10-07T14:54:49.447Z,101067.94
2022-10-07T14:59:54.621Z,101061.77
2022-10-07T15:04:58.380Z,101058.48
2022-10-07T15:10:01.473Z,101049.01
2022-10-07T15:15:06.380Z,101039.88
2022-10-07T15:20:16.563Z,101030.90
2022-10-07T15:25:23.139Z,101025.67
2022-10-07T15:30:29.513Z,101016.96
2022-10-07T15:35:36.412Z,101013.65
2022-10-07T15:41:00.466Z,101012.14
2022-10-07T15:46:04.145Z,101006.28
2022-10-07T15:51:10.190Z,100995.32
2022-10-07T15:56:14.434Z,100988.35
2022-10-07T16:01:19.326Z,100986.73
2022-10-07T16:06:28.937Z,100981.52
2022-10-07T16:11:34.732Z,100974.63
2022-10-07T16:16:39.348Z,100970.15
2022-10-07T16:21:44.084Z,100965.29
2022-10-07T16:26:51.990Z,100965.38
2022-10-07T16:31:59.265Z,100958.11
2022-10-07T16:37:06.822Z,100956.75
2022-10-07T16:43:01.025Z,100950.75
2022-10-07T16:48:51.647Z,100952.97
2022-10-07T16:54:40.423Z,100952.77
2022-10-07T17:06:56.886Z,100948.02
2022-10-07T17:19:34.344Z,100941.16
2022-10-07T17:52:43.780Z,100920.83
2022-10-07T17:57:47.757Z,100918.73
2022-10-07T18:02:51.426Z,100917.06
2022-10-07T18:07:54.435Z,100910.97
2022-10-07T18:13:16.484Z,100905.19
2022-10-07T18:18:19.627Z,100900.45
2022-10-07T18:23:22.795Z,100893.64
2022-10-07T18:28:27.363Z,100885.95
2022-10-07T18:33:35.661Z,100877.59
2022-10-07T18:38:43.885Z,100875.45
2022-10-07T18:43:47.610Z,100869.64
2022-10-07T18:48:51.122Z,100865.99
2022-10-07T18:53:56.702Z,100862.52
2022-10-07T18:59:00.302Z,100860.20
2022-10-07T19:04:04.775Z,100857.36
2022-10-07T19:09:09.912Z,100858.48
2022-10-07T19:14:13.925Z,100855.24
2022-10-07T19:19:20.840Z,100853.30
2022-10-07T19:24:44.505Z,100845.18
2022-10-07T19:29:51.195Z,100840.25
2022-10-07T19:34:54.713Z,100838.73
2022-10-07T19:39:58.024Z,100831.88
2022-10-07T19:45:01.228Z,100828.60
2022-10-07T19:50:05.955Z,100825.09
2022-10-07T19:55:10.267Z,100821.45
2022-10-07T20:00:14.133Z,100824.79
2022-10-07T20:05:18.550Z,100822.52
2022-10-07T20:10:23.035Z,100823.46
2022-10-07T20:15:26.710Z,100815.83
2022-10-07T20:20:30.213Z,100808.38
2022-10-07T20:25:33.802Z,100804.93
2022-10-07T20:30:37.572Z,100805.09
2022-10-07T20:35:41.646Z,100803.39
2022-10-07T20:41:03.759Z,100796.91
2022-10-07T20:46:08.648Z,100788.40
2022-10-07T20:51:13.453Z,100783.27
2022-10-07T20:56:19.360Z,100779.20
2022-10-07T21:01:23.281Z,100775.00
2022-10-07T21:06:26.453Z,100768.75
2022-10-07T21:11:30.999Z,100763.35
2022-10-07T21:16:35.676Z,100762.11
2022-10-07T21:21:40.178Z,100757.77
2022-10-07T21:26:44.214Z,100757.39
2022-10-07T21:31:47.393Z,100747.23
2022-10-07T21:36:53.911Z,100746.96
2022-10-07T21:41:58.368Z,100736.54
2022-10-07T21:47:01.696Z,100732.19
2022-10-07T21:52:05.810Z,100726.20
2022-10-07T21:57:09.023Z,100720.64
2022-10-07T22:02:12.363Z,100711.54
2022-10-07T22:07:34.502Z,100704.73
2022-10-07T22:12:37.532Z,100700.70
2022-10-07T22:17:40.787Z,100694.23
2022-10-07T22:22:44.778Z,100687.60
2022-10-07T22:27:51.965Z,100680.11
2022-10-07T22:32:54.981Z,100669.98
2022-10-07T22:37:59.353Z,100662.39
2022-10-07T22:43:02.651Z,100653.09
2022-10-07T22:48:06.662Z,100649.26
2022-10-07T22:53:09.944Z,100643.66
2022-10-07T22:58:13.235Z,100640.77
2022-10-07T23:03:16.479Z,100632.82
2022-10-07T23:08:19.814Z,100621.80
2022-10-07T23:13:23.886Z,100618.95
2022-10-07T23:18:28.802Z,100610.02
2022-10-07T23:23:37.567Z,100603.60
2022-10-07T23:28:42.059Z,100599.33
2022-10-07T23:33:47.710Z,100595.20
2022-10-07T23:38:51.879Z,100585.19
2022-10-07T23:43:57.435Z,100577.86
2022-10-07T23:49:00.820Z,100571.59
2022-10-07T23:54:04.341Z,100566.05
2022-10-07T23:59:07.749Z,100561.02
